createdAt,value
2022-08-20T00:01:01.784Z,6.70
2022-08-20T00:03:34.101Z,8.00
2022-08-20T00:06:06.640Z,7.10
2022-08-20T00:08:35.060Z,6.80
2022-08-20T00:11:03.622Z,6.80
2022-08-20T00:13:34.680Z,7.67
2022-08-20T00:16:02.778Z,7.47
2022-08-20T00:18:32.112Z,7.00
2022-08-20T00:21:01.132Z,7.43
2022-08-20T00:23:29.051Z,6.87
2022-08-20T00:25:56.944Z,6.87
2022-08-20T00:28:24.816Z,6.80
2022-08-20T00:30:52.746Z,6.33
2022-08-20T00:33:22.329Z,7.43
2022-08-20T00:35:54.544Z,7.07
2022-08-20T00:38:22.484Z,7.73
2022-08-20T00:40:53.488Z,8.37
2022-08-20T00:43:33.150Z,6.47
2022-08-20T00:46:05.259Z,6.67
2022-08-20T00:48:36.061Z,6.33
2022-08-20T00:51:09.776Z,7.47
2022-08-20T00:53:38.924Z,8.37
2022-08-20T00:56:09.435Z,7.50
2022-08-20T00:58:39.969Z,6.67
2022-08-20T01:01:09.462Z,6.63
2022-08-20T01:03:37.853Z,6.17
2022-08-20T01:06:09.249Z,7.00
2022-08-20T01:08:37.293Z,7.03
2022-08-20T01:11:13.194Z,10.20
2022-08-20T01:13:42.261Z,6.80
2022-08-20T01:16:18.470Z,6.20
2022-08-20T01:18:48.837Z,6.70
2022-08-20T01:21:23.582Z,6.40
2022-08-20T01:24:03.049Z,6.80
2022-08-20T01:26:37.000Z,7.10
2022-08-20T01:29:09.325Z,6.40
2022-08-20T01:31:40.913Z,6.60
2022-08-20T01:34:12.312Z,6.07
2022-08-20T01:36:46.288Z,6.57
2022-08-20T01:39:17.063Z,6.30
2022-08-20T01:42:04.081Z,6.83
2022-08-20T01:44:32.408Z,6.87
2022-08-20T01:47:11.310Z,6.50
2022-08-20T01:49:43.938Z,6.57
2022-08-20T01:52:15.763Z,6.00
2022-08-20T01:54:43.658Z,6.20
2022-08-20T01:57:16.945Z,7.00
2022-08-20T01:59:45.904Z,6.53
2022-08-20T02:02:14.005Z,7.33
2022-08-20T02:04:42.640Z,6.93
2022-08-20T02:07:16.019Z,6.90
2022-08-20T02:09:45.601Z,7.67
2022-08-20T02:12:15.416Z,6.50
2022-08-20T02:14:48.772Z,6.43
2022-08-20T02:17:16.815Z,7.10
2022-08-20T02:19:48.912Z,5.80
2022-08-20T02:22:21.543Z,6.67
2022-08-20T02:24:49.654Z,6.00
2022-08-20T02:27:23.417Z,6.43
2022-08-20T02:29:52.514Z,6.60
2022-08-20T02:32:32.562Z,7.20
2022-08-20T02:35:03.169Z,6.90
2022-08-20T02:37:31.712Z,7.90
2022-08-20T02:39:59.976Z,6.40
2022-08-20T02:42:29.362Z,6.40
2022-08-20T02:44:57.571Z,7.40
2022-08-20T02:47:26.006Z,7.63
2022-08-20T02:49:54.210Z,6.43
2022-08-20T02:52:22.852Z,7.60
2022-08-20T02:54:50.705Z,6.50
2022-08-20T02:57:21.256Z,6.93
2022-08-20T02:59:52.166Z,7.40
2022-08-20T03:02:20.190Z,7.00
2022-08-20T03:04:48.083Z,6.60
2022-08-20T03:07:16.105Z,9.07
2022-08-20T03:09:44.072Z,6.83
2022-08-20T03:12:12.403Z,7.40
2022-08-20T03:14:40.328Z,7.37
2022-08-20T03:17:09.588Z,7.73
2022-08-20T03:19:37.513Z,7.17
2022-08-20T03:22:05.933Z,6.60
2022-08-20T03:24:33.850Z,6.40
2022-08-20T03:27:01.717Z,6.77
2022-08-20T03:29:30.040Z,6.60
2022-08-20T03:31:57.944Z,7.97
2022-08-20T03:34:27.267Z,6.90
2022-08-20T03:36:55.165Z,7.50
2022-08-20T03:39:22.996Z,8.20
2022-08-20T03:41:50.980Z,7.40
2022-08-20T03:44:19.121Z,6.97
2022-08-20T03:46:47.333Z,6.90
2022-08-20T03:49:15.198Z,7.60
2022-08-20T03:51:57.791Z,7.17
2022-08-20T03:54:27.295Z,8.17
2022-08-20T03:57:01.053Z,7.17
2022-08-20T03:59:29.124Z,8.33
2022-08-20T04:01:57.193Z,7.90
2022-08-20T04:04:25.136Z,8.17
2022-08-20T04:06:54.533Z,7.27
2022-08-20T04:09:22.537Z,9.00
2022-08-20T04:11:50.446Z,8.10
2022-08-20T04:14:19.443Z,7.93
2022-08-20T04:16:49.057Z,8.77
2022-08-20T04:19:17.361Z,8.53
2022-08-20T04:21:48.570Z,8.03
2022-08-20T04:24:22.624Z,9.87
2022-08-20T04:26:59.303Z,8.20
2022-08-20T04:29:32.462Z,9.20
2022-08-20T04:32:05.620Z,7.87
2022-08-20T04:34:34.760Z,8.60
2022-08-20T04:37:02.677Z,7.97
2022-08-20T04:39:32.203Z,8.77
2022-08-20T04:42:00.722Z,8.00
2022-08-20T04:44:28.649Z,8.20
2022-08-20T04:46:56.718Z,7.50
2022-08-20T04:49:26.322Z,7.67
2022-08-20T04:51:54.813Z,7.57
2022-08-20T04:54:23.049Z,7.53
2022-08-20T04:56:52.420Z,7.87
2022-08-20T04:59:20.575Z,7.30
2022-08-20T05:01:48.457Z,6.70
2022-08-20T05:04:16.427Z,8.30
2022-08-20T05:06:45.215Z,7.50
2022-08-20T05:09:13.131Z,7.33
2022-08-20T05:11:41.018Z,7.50
2022-08-20T05:14:10.372Z,8.40
2022-08-20T05:16:39.101Z,8.20
2022-08-20T05:19:08.442Z,7.20
2022-08-20T05:21:36.357Z,8.37
2022-08-20T05:24:04.811Z,7.13
2022-08-20T05:26:33.264Z,8.23
2022-08-20T05:29:02.653Z,7.43
2022-08-20T05:31:33.817Z,8.30
2022-08-20T05:34:09.592Z,8.50
2022-08-20T05:36:39.988Z,7.47
2022-08-20T05:39:08.795Z,6.73
2022-08-20T05:41:37.759Z,7.70
2022-08-20T05:44:09.847Z,7.83
2022-08-20T05:46:40.705Z,8.43
2022-08-20T05:49:09.049Z,7.93
2022-08-20T05:51:37.856Z,8.50
2022-08-20T05:54:07.172Z,7.87
2022-08-20T05:56:35.870Z,7.80
2022-08-20T05:59:06.759Z,7.33
2022-08-20T06:01:37.089Z,8.20
2022-08-20T06:04:25.037Z,7.83
2022-08-20T06:06:53.901Z,7.60
2022-08-20T06:09:31.415Z,7.80
2022-08-20T06:12:02.270Z,8.10
2022-08-20T06:14:30.612Z,9.00
2022-08-20T06:17:04.852Z,8.60
2022-08-20T06:19:35.944Z,8.00
2022-08-20T06:22:18.725Z,9.33
2022-08-20T06:24:53.356Z,8.00
2022-08-20T06:27:21.606Z,8.27
2022-08-20T06:29:50.898Z,9.03
2022-08-20T06:32:19.857Z,9.70
2022-08-20T06:34:57.961Z,8.53
2022-08-20T06:37:31.645Z,8.07
2022-08-20T06:40:03.419Z,8.73
2022-08-20T06:42:31.555Z,8.20
2022-08-20T06:45:00.511Z,8.33
2022-08-20T06:47:28.487Z,9.60
2022-08-20T06:49:56.373Z,8.87
2022-08-20T06:52:29.308Z,8.40
2022-08-20T06:55:14.638Z,7.93
2022-08-20T06:57:43.373Z,8.00
2022-08-20T07:00:14.682Z,8.13
2022-08-20T07:02:42.941Z,7.70
2022-08-20T07:05:11.584Z,9.10
2022-08-20T07:07:40.854Z,8.67
2022-08-20T07:10:11.438Z,12.27
2022-08-20T07:12:39.450Z,13.63
2022-08-20T07:15:09.865Z,13.10
2022-08-20T07:17:38.485Z,14.03
2022-08-20T07:20:07.772Z,11.10
2022-08-20T07:22:36.965Z,10.30
2022-08-20T07:25:08.068Z,10.80
2022-08-20T07:27:36.554Z,8.53
2022-08-20T07:30:23.596Z,9.40
2022-08-20T07:32:51.732Z,10.10
2022-08-20T07:35:20.443Z,9.33
2022-08-20T07:37:51.397Z,8.97
2022-08-20T07:40:26.146Z,9.90
2022-08-20T07:42:55.211Z,9.10
2022-08-20T07:45:24.167Z,9.40
2022-08-20T07:47:53.495Z,10.70
2022-08-20T07:50:25.288Z,12.13
2022-08-20T07:52:54.091Z,12.30
2022-08-20T07:55:23.473Z,9.60
2022-08-20T07:57:51.796Z,7.57
2022-08-20T08:00:22.510Z,10.00
2022-08-20T08:02:50.573Z,13.37
2022-08-20T08:05:19.114Z,10.00
2022-08-20T08:07:47.640Z,8.83
2022-08-20T08:10:19.680Z,9.70
2022-08-20T08:12:51.582Z,9.57
2022-08-20T08:15:24.534Z,8.50
2022-08-20T08:17:55.636Z,7.80
2022-08-20T08:20:24.257Z,7.43
2022-08-20T08:22:53.790Z,8.10
2022-08-20T08:25:22.156Z,7.63
2022-08-20T08:27:51.388Z,8.67
2022-08-20T08:30:19.590Z,9.40
2022-08-20T08:33:05.280Z,9.33
2022-08-20T08:35:34.222Z,8.90
2022-08-20T08:38:02.685Z,9.37
2022-08-20T08:40:32.078Z,10.03
2022-08-20T08:43:05.013Z,8.50
2022-08-20T08:45:43.704Z,9.40
2022-08-20T08:48:17.951Z,8.13
2022-08-20T08:50:53.976Z,8.70
2022-08-20T08:53:28.736Z,8.60
2022-08-20T08:55:56.699Z,10.63
2022-08-20T08:58:26.633Z,8.63
2022-08-20T09:00:57.674Z,8.07
2022-08-20T09:03:34.484Z,8.33
2022-08-20T09:06:04.421Z,8.90
2022-08-20T09:08:37.049Z,9.03
2022-08-20T09:11:06.219Z,8.33
2022-08-20T09:13:36.241Z,9.27
2022-08-20T09:16:04.745Z,8.27
2022-08-20T09:18:32.722Z,8.10
2022-08-20T09:21:00.695Z,8.60
2022-08-20T09:23:28.682Z,8.07
2022-08-20T09:25:56.586Z,7.43
2022-08-20T09:28:24.680Z,7.13
2022-08-20T09:31:01.767Z,7.53
2022-08-20T09:33:29.667Z,8.97
2022-08-20T09:35:57.698Z,10.63
2022-08-20T09:38:25.605Z,13.63
2022-08-20T09:40:53.580Z,11.67
2022-08-20T09:43:21.521Z,12.13
2022-08-20T09:45:49.404Z,10.03
2022-08-20T09:48:18.596Z,10.20
2022-08-20T09:50:49.602Z,10.17
2022-08-20T09:53:20.764Z,8.73
2022-08-20T09:55:52.532Z,8.53
2022-08-20T09:58:25.001Z,10.50
2022-08-20T10:00:53.060Z,8.73
2022-08-20T10:03:22.251Z,9.50
2022-08-20T10:05:50.102Z,8.30
2022-08-20T10:08:18.196Z,8.90
2022-08-20T10:10:46.077Z,8.97
2022-08-20T10:13:15.328Z,7.10
2022-08-20T10:15:43.615Z,7.90
2022-08-20T10:18:12.560Z,7.30
2022-08-20T10:20:41.920Z,8.07
2022-08-20T10:23:10.877Z,8.47
2022-08-20T10:25:39.131Z,8.77
2022-08-20T10:28:07.069Z,7.70
2022-08-20T10:30:35.552Z,7.70
2022-08-20T10:33:03.473Z,9.33
2022-08-20T10:35:31.495Z,11.10
2022-08-20T10:38:00.787Z,10.00
2022-08-20T10:40:28.896Z,11.70
2022-08-20T10:42:56.774Z,8.63
2022-08-20T10:45:25.756Z,8.00
2022-08-20T10:47:54.812Z,6.40
2022-08-20T10:50:22.778Z,7.33
2022-08-20T10:52:50.672Z,7.00
2022-08-20T10:55:21.119Z,7.87
2022-08-20T10:57:49.294Z,8.20
2022-08-20T11:00:19.337Z,9.47
2022-08-20T11:02:47.944Z,9.60
2022-08-20T11:05:15.832Z,10.00
2022-08-20T11:07:50.635Z,9.47
2022-08-20T11:10:28.053Z,8.40
2022-08-20T11:12:56.189Z,10.13
2022-08-20T11:15:24.559Z,8.10
2022-08-20T11:17:52.664Z,9.27
2022-08-20T11:20:21.973Z,8.83
2022-08-20T11:22:49.975Z,8.17
2022-08-20T11:25:18.173Z,8.63
2022-08-20T11:27:50.177Z,8.80
2022-08-20T11:30:20.520Z,8.70
2022-08-20T11:32:48.695Z,9.03
2022-08-20T11:38:05.736Z,7.73
2022-08-20T11:40:34.474Z,8.93
2022-08-20T11:43:19.010Z,8.40
2022-08-20T11:45:49.462Z,8.57
2022-08-20T11:48:17.951Z,8.90
2022-08-20T11:50:46.488Z,9.37
2022-08-20T11:53:14.826Z,9.30
2022-08-20T11:55:43.228Z,10.70
2022-08-20T11:58:12.931Z,10.60
2022-08-20T12:00:40.843Z,11.17
2022-08-20T12:03:10.417Z,9.50
2022-08-20T12:05:40.783Z,8.97
2022-08-20T12:08:09.407Z,8.80
2022-08-20T12:10:38.342Z,10.30
2022-08-20T12:13:06.700Z,9.77
2022-08-20T12:15:37.064Z,9.87
2022-08-20T12:18:07.825Z,9.90
2022-08-20T12:20:36.621Z,10.37
2022-08-20T12:23:05.096Z,9.73
2022-08-20T12:25:32.995Z,10.23
2022-08-20T12:28:00.886Z,10.17
2022-08-20T12:30:29.030Z,9.93
2022-08-20T12:32:58.568Z,10.20
2022-08-20T12:35:27.714Z,10.23
2022-08-20T12:37:55.585Z,8.50
2022-08-20T12:40:32.019Z,7.47
2022-08-20T12:43:01.350Z,9.80
2022-08-20T12:45:29.414Z,8.30
2022-08-20T12:48:04.638Z,9.23
2022-08-20T12:50:33.982Z,7.67
2022-08-20T12:53:02.542Z,9.33
2022-08-20T12:55:30.953Z,8.90
2022-08-20T12:58:01.739Z,9.07
2022-08-20T13:00:31.937Z,9.53
2022-08-20T13:03:03.582Z,9.30
2022-08-20T13:05:32.709Z,9.60
2022-08-20T13:08:00.756Z,9.60
2022-08-20T13:10:30.967Z,8.70
2022-08-20T13:13:01.770Z,8.67
2022-08-20T13:15:30.601Z,9.30
2022-08-20T13:18:00.511Z,10.13
2022-08-20T13:20:34.164Z,8.93
2022-08-20T13:23:03.681Z,9.27
2022-08-20T13:25:32.220Z,10.37
2022-08-20T13:28:03.829Z,8.80
2022-08-20T13:30:33.221Z,8.70
2022-08-20T13:33:01.237Z,11.20
2022-08-20T13:35:30.513Z,8.80
2022-08-20T13:37:58.443Z,7.40
2022-08-20T13:40:26.901Z,7.80
2022-08-20T13:42:54.868Z,7.53
2022-08-20T13:45:22.802Z,6.47
2022-08-20T13:47:55.149Z,7.40
2022-08-20T13:50:25.482Z,6.80
2022-08-20T13:52:55.174Z,7.30
2022-08-20T13:55:26.358Z,7.33
2022-08-20T13:57:56.701Z,7.00
2022-08-20T14:00:30.930Z,6.53
2022-08-20T14:02:59.249Z,5.80
2022-08-20T14:05:27.193Z,6.27
2022-08-20T14:07:56.744Z,5.70
2022-08-20T14:10:31.284Z,6.00
2022-08-20T14:12:59.608Z,7.30
2022-08-20T14:15:28.255Z,5.73
2022-08-20T14:17:58.579Z,6.40
2022-08-20T14:20:32.150Z,6.07
2022-08-20T14:23:02.761Z,6.27
2022-08-20T14:25:32.460Z,6.07
2022-08-20T14:28:09.783Z,5.87
2022-08-20T14:30:37.821Z,6.40
2022-08-20T14:33:05.717Z,5.63
2022-08-20T14:35:33.704Z,6.30
2022-08-20T14:38:05.634Z,6.23
2022-08-20T14:40:34.443Z,5.53
2022-08-20T14:43:03.044Z,6.40
2022-08-20T14:45:31.043Z,5.63
2022-08-20T14:47:59.548Z,5.67
2022-08-20T14:50:29.725Z,6.23
2022-08-20T14:52:58.228Z,6.60
2022-08-20T14:55:29.690Z,6.77
2022-08-20T14:57:58.333Z,6.07
2022-08-20T15:00:28.532Z,6.40
2022-08-20T15:02:56.632Z,5.60
2022-08-20T15:05:24.847Z,5.40
2022-08-20T15:07:54.188Z,4.93
2022-08-20T15:10:25.044Z,5.77
2022-08-20T15:12:54.860Z,5.60
2022-08-20T15:15:23.910Z,5.47
2022-08-20T15:17:54.924Z,5.97
2022-08-20T15:20:26.501Z,5.43
2022-08-20T15:22:54.927Z,5.33
2022-08-20T15:25:26.215Z,5.97
2022-08-20T15:28:01.723Z,5.47
2022-08-20T15:30:30.977Z,5.30
2022-08-20T15:32:59.245Z,6.10
2022-08-20T15:35:28.801Z,5.70
2022-08-20T15:37:57.848Z,6.10
2022-08-20T15:40:28.960Z,5.47
2022-08-20T15:42:59.729Z,5.50
2022-08-20T15:45:27.951Z,5.83
2022-08-20T15:48:01.363Z,5.40
2022-08-20T15:50:40.934Z,6.10
2022-08-20T15:53:12.717Z,6.27
2022-08-20T15:55:45.426Z,5.30
2022-08-20T15:58:23.056Z,5.97
2022-08-20T16:00:57.094Z,5.40
2022-08-20T16:04:03.880Z,5.80
2022-08-20T16:06:34.254Z,5.47
2022-08-20T16:09:19.904Z,4.87
2022-08-20T16:11:53.454Z,6.90
2022-08-20T16:14:25.852Z,6.50
2022-08-20T16:17:01.518Z,6.63
2022-08-20T16:19:41.931Z,5.63
2022-08-20T16:22:13.782Z,5.53
2022-08-20T16:24:41.705Z,5.33
2022-08-20T16:27:17.286Z,4.80
2022-08-20T16:29:55.873Z,5.77
2022-08-20T16:32:35.083Z,5.27
2022-08-20T16:35:14.228Z,4.90
2022-08-20T16:37:47.984Z,4.90
2022-08-20T16:40:23.395Z,5.60
2022-08-20T16:42:53.763Z,5.43
2022-08-20T16:45:27.437Z,5.30
2022-08-20T16:48:00.329Z,6.13
2022-08-20T16:50:34.630Z,5.00
2022-08-20T16:53:03.303Z,5.50
2022-08-20T16:55:31.379Z,5.40
2022-08-20T16:57:59.414Z,5.47
2022-08-20T17:00:35.322Z,5.70
2022-08-20T17:03:06.031Z,5.67
2022-08-20T17:05:46.066Z,6.23
2022-08-20T17:08:21.613Z,6.10
2022-08-20T17:10:59.898Z,5.90
2022-08-20T17:13:30.332Z,5.33
2022-08-20T17:16:02.433Z,5.00
2022-08-20T17:18:32.349Z,5.17
2022-08-20T17:21:01.682Z,5.80
2022-08-20T17:23:31.592Z,6.20
2022-08-20T17:26:02.660Z,10.10
2022-08-20T17:28:35.154Z,8.20
2022-08-20T17:31:04.822Z,7.33
2022-08-20T17:33:36.343Z,7.03
2022-08-20T17:36:11.133Z,6.87
2022-08-20T17:38:50.772Z,5.67
2022-08-20T17:41:22.730Z,6.40
2022-08-20T17:43:59.145Z,5.90
2022-08-20T17:46:31.227Z,5.23
2022-08-20T17:49:02.903Z,5.43
2022-08-20T17:51:35.229Z,5.90
2022-08-20T17:54:13.013Z,5.80
2022-08-20T17:56:44.116Z,6.13
2022-08-20T17:59:24.137Z,6.13
2022-08-20T18:02:10.250Z,6.40
2022-08-20T18:04:38.323Z,5.77
2022-08-20T18:07:12.914Z,6.33
2022-08-20T18:09:49.047Z,7.73
2022-08-20T18:12:33.829Z,8.37
2022-08-20T18:15:09.364Z,7.10
2022-08-20T18:17:58.888Z,6.30
2022-08-20T18:20:50.303Z,5.83
2022-08-20T18:23:22.700Z,6.40
2022-08-20T18:25:53.946Z,6.27
2022-08-20T18:28:26.331Z,5.70
2022-08-20T18:30:57.220Z,6.60
2022-08-20T18:33:33.637Z,6.60
2022-08-20T18:36:11.998Z,6.70
2022-08-20T18:38:42.229Z,7.83
2022-08-20T18:41:13.880Z,6.87
2022-08-20T18:43:43.341Z,6.07
2022-08-20T18:46:15.336Z,7.30
2022-08-20T18:48:56.999Z,10.10
2022-08-20T18:51:41.360Z,9.20
2022-08-20T18:54:22.128Z,8.30
2022-08-20T18:56:50.073Z,7.47
2022-08-20T18:59:19.803Z,7.13
2022-08-20T19:01:49.345Z,6.70
2022-08-20T19:04:29.353Z,7.03
2022-08-20T19:07:02.641Z,7.57
2022-08-20T19:09:49.269Z,7.03
2022-08-20T19:12:31.416Z,7.00
2022-08-20T19:15:07.088Z,8.13
2022-08-20T19:17:46.209Z,8.10
2022-08-20T19:20:19.139Z,8.77
2022-08-20T19:22:49.947Z,9.90
2022-08-20T19:25:25.758Z,9.10
2022-08-20T19:27:53.995Z,9.00
2022-08-20T19:30:33.085Z,9.60
2022-08-20T19:33:01.552Z,8.97
2022-08-20T19:35:30.899Z,8.40
2022-08-20T19:37:59.464Z,8.27
2022-08-20T19:40:30.016Z,8.73
2022-08-20T19:43:00.396Z,8.50
2022-08-20T19:45:32.809Z,8.90
2022-08-20T19:48:27.377Z,8.50
2022-08-20T19:51:05.903Z,9.97
2022-08-20T19:53:36.331Z,10.13
2022-08-20T19:56:07.419Z,9.80
2022-08-20T19:58:36.365Z,8.90
2022-08-20T20:01:10.276Z,7.83
2022-08-20T20:03:39.232Z,8.43
2022-08-20T20:06:16.837Z,7.73
2022-08-20T20:08:52.551Z,9.30
2022-08-20T20:11:34.139Z,8.57
2022-08-20T20:14:04.753Z,6.60
2022-08-20T20:16:33.540Z,6.73
2022-08-20T20:19:25.410Z,6.67
2022-08-20T20:22:01.988Z,7.00
2022-08-20T20:24:40.241Z,6.47
2022-08-20T20:27:13.666Z,10.67
2022-08-20T20:29:47.960Z,9.03
2022-08-20T20:32:20.505Z,9.30
2022-08-20T20:34:55.754Z,8.80
2022-08-20T20:37:49.589Z,9.00
2022-08-20T20:40:25.762Z,9.00
2022-08-20T20:43:01.196Z,9.00
2022-08-20T20:45:33.800Z,8.60
2022-08-20T20:48:18.565Z,9.37
2022-08-20T20:50:48.077Z,10.00
2022-08-20T20:53:47.307Z,9.67
2022-08-20T20:56:28.489Z,8.97
2022-08-20T20:58:57.021Z,9.00
2022-08-20T21:01:34.577Z,9.37
2022-08-20T21:04:13.298Z,8.97
2022-08-20T21:06:41.404Z,8.97
2022-08-20T21:09:10.726Z,9.00
2022-08-20T21:11:38.641Z,8.57
2022-08-20T21:14:06.648Z,9.00
2022-08-20T21:16:34.711Z,9.00
2022-08-20T21:19:05.561Z,8.93
2022-08-20T21:21:33.600Z,9.23
2022-08-20T21:24:01.499Z,8.40
2022-08-20T21:26:31.149Z,8.73
2022-08-20T21:28:59.287Z,7.63
2022-08-20T21:31:32.596Z,8.53
2022-08-20T21:34:00.800Z,8.60
2022-08-20T21:36:29.146Z,7.90
2022-08-20T21:38:57.099Z,8.93
2022-08-20T21:41:29.856Z,8.70
2022-08-20T21:44:00.046Z,9.13
2022-08-20T21:46:28.694Z,8.10
2022-08-20T21:48:57.005Z,12.53
2022-08-20T21:51:24.959Z,11.40
2022-08-20T21:53:52.973Z,10.13
2022-08-20T21:56:21.093Z,10.40
2022-08-20T21:58:51.758Z,9.23
2022-08-20T22:01:24.578Z,8.60
2022-08-20T22:03:52.512Z,9.23
2022-08-20T22:06:20.626Z,8.30
2022-08-20T22:08:48.525Z,8.73
2022-08-20T22:11:16.457Z,8.20
2022-08-20T22:13:45.016Z,7.17
2022-08-20T22:16:16.037Z,8.30
2022-08-20T22:18:46.327Z,7.63
2022-08-20T22:21:18.396Z,8.10
2022-08-20T22:23:46.807Z,7.10
2022-08-20T22:26:17.637Z,8.20
2022-08-20T22:28:45.612Z,7.00
2022-08-20T22:31:22.542Z,6.50
2022-08-20T22:33:51.967Z,6.80
2022-08-20T22:36:20.517Z,5.60
2022-08-20T22:38:54.706Z,5.37
2022-08-20T22:41:24.025Z,5.10
2022-08-20T22:43:56.525Z,5.00
2022-08-20T22:46:27.178Z,5.23
2022-08-20T22:48:57.126Z,6.23
2022-08-20T22:51:30.265Z,5.63
2022-08-20T22:53:58.782Z,7.07
2022-08-20T22:56:26.906Z,6.10
2022-08-20T22:58:59.466Z,6.00
2022-08-20T23:01:28.198Z,6.60
2022-08-20T23:03:59.492Z,7.03
2022-08-20T23:06:30.009Z,6.80
2022-08-20T23:08:57.984Z,6.47
2022-08-20T23:11:27.128Z,7.40
2022-08-20T23:13:56.866Z,6.50
2022-08-20T23:16:25.585Z,6.27
2022-08-20T23:18:53.611Z,6.83
2022-08-20T23:21:22.878Z,6.80
2022-08-20T23:23:50.782Z,6.53
2022-08-20T23:26:22.163Z,7.73
2022-08-20T23:28:50.963Z,7.50
2022-08-20T23:31:19.379Z,7.60
2022-08-20T23:33:47.496Z,7.17
2022-08-20T23:36:17.579Z,8.10
2022-08-20T23:38:47.001Z,6.67
2022-08-20T23:41:14.946Z,7.57
2022-08-20T23:43:44.072Z,8.00
2022-08-20T23:46:13.033Z,8.17
2022-08-20T23:48:41.001Z,7.40
2022-08-20T23:51:08.904Z,8.17
2022-08-20T23:53:37.701Z,8.57
2022-08-20T23:56:07.316Z,7.47
2022-08-20T23:58:35.257Z,8.70
